Time;durP1;ratioP1;P1;durP2;ratioP2;P2;SDS_P1;SDS_P2;PMS_P1;PMS_P2;Temp;Humidity;BMP_temperature;BMP_pressure;BME280_temperature;BME280_humidity;BME280_pressure;Samples;Min_cycle;Max_cycle;Signal;HPM_P1;HPM_P2
2022/08/03 04:27:33;;;;;;;3.00;2.80;;;;;;;;;;4937283;29;20260;-90
2022/08/03 06:05:13;;;;;;;3.88;3.47;;;;;;;;;;5040391;28;20599;-87
2022/08/03 06:07:41;;;;;;;4.20;3.80;;;;;;;;;;5038627;28;20194;-87
2022/08/03 06:10:09;;;;;;;5.68;3.97;;;;;;;;;;5041899;28;20282;-87
2022/08/03 06:12:40;;;;;;;5.20;3.70;;;;;;;;;;5040385;28;20218;-87
2022/08/03 06:15:09;;;;;;;4.43;3.72;;;;;;;;;;5040404;28;20297;-87
2022/08/03 06:17:45;;;;;;;3.65;3.35;;;;;;;;;;5037376;28;20233;-87
2022/08/03 06:20:14;;;;;;;4.85;3.70;;;;;;;;;;5049279;28;20212;-87
2022/08/03 06:22:41;;;;;;;6.07;3.75;;;;;;;;;;5049638;28;20248;-87
2022/08/03 06:25:15;;;;;;;4.72;4.20;;;;;;;;;;5047055;28;20297;-85
2022/08/03 06:27:43;;;;;;;4.03;3.60;;;;;;;;;;5040502;28;20212;-88
2022/08/03 06:30:14;;;;;;;5.75;3.85;;;;;;;;;;5052587;28;20212;-88
2022/08/03 06:32:43;;;;;;;5.07;3.47;;;;;;;;;;5037408;28;20219;-87
2022/08/03 06:35:10;;;;;;;4.10;3.63;;;;;;;;;;5056185;28;20217;-87
2022/08/03 06:37:46;;;;;;;3.92;3.58;;;;;;;;;;5047492;28;20201;-87
2022/08/03 06:40:14;;;;;;;3.65;3.35;;;;;;;;;;5053230;28;20228;-88
2022/08/03 06:42:44;;;;;;;4.88;3.80;;;;;;;;;;5052711;28;20210;-87
2022/08/03 06:45:12;;;;;;;4.80;3.47;;;;;;;;;;5055118;28;20201;-88
2022/08/03 06:47:40;;;;;;;4.60;3.35;;;;;;;;;;5054316;28;20270;-87
2022/08/03 06:50:17;;;;;;;3.55;3.15;;;;;;;;;;5056205;28;20217;-87
2022/08/03 06:52:48;;;;;;;5.43;3.60;;;;;;;;;;5056695;28;20225;-88
2022/08/03 06:55:31;;;;;;;4.18;3.10;;;;;;;;;;5056356;28;20205;-89
2022/08/03 06:58:05;;;;;;;3.65;3.10;;;;;;;;;;5056557;28;20307;-86
2022/08/03 07:00:33;;;;;;;3.88;3.30;;;;;;;;;;5050756;28;20203;-88
2022/08/03 07:03:00;;;;;;;3.72;3.28;;;;;;;;;;5047997;28;20237;-88
2022/08/03 07:05:29;;;;;;;6.53;3.50;;;;;;;;;;5049282;28;20202;-88
2022/08/03 07:08:11;;;;;;;3.90;3.47;;;;;;;;;;5045790;28;20301;-89
2022/08/03 07:10:46;;;;;;;4.15;3.03;;;;;;;;;;5046929;28;20235;-87
2022/08/03 07:13:18;;;;;;;4.13;3.03;;;;;;;;;;5040988;28;20283;-88
2022/08/03 07:25:28;;;;;;;3.97;3.55;;;;;;;;;;5044349;28;20212;-88
2022/08/03 07:28:11;;;;;;;6.00;3.53;;;;;;;;;;5046445;28;20237;-87
2022/08/03 07:30:51;;;;;;;4.28;3.22;;;;;;;;;;5048505;28;20286;-85
2022/08/03 07:33:25;;;;;;;3.80;2.85;;;;;;;;;;5072152;28;20309;-87
2022/08/03 07:35:56;;;;;;;3.67;3.03;;;;;;;;;;5088153;22;20230;-88
2022/08/03 07:38:27;;;;;;;4.63;2.90;;;;;;;;;;5032737;28;20675;-85
2022/08/03 07:40:59;;;;;;;4.38;2.78;;;;;;;;;;5017776;28;20210;-88
2022/08/03 07:43:38;;;;;;;3.28;2.97;;;;;;;;;;5038194;28;20217;-87
2022/08/03 07:46:18;;;;;;;;;;;;;;;;;;;;;
2022/08/03 07:48:45;;;;;;;3.00;2.80;;;;;;;;;;5029759;28;20201;-90
2022/08/03 07:51:13;;;;;;;3.30;3.00;;;;;;;;;;5045365;28;20205;-89
2022/08/03 07:53:40;;;;;;;3.00;2.80;;;;;;;;;;5045464;28;20311;-90
2022/08/03 07:56:07;;;;;;;2.90;2.58;;;;;;;;;;5037897;28;20201;-90
2022/08/03 07:58:36;;;;;;;3.20;2.90;;;;;;;;;;5048112;28;20232;-89
2022/08/03 08:01:04;;;;;;;3.20;2.40;;;;;;;;;;5054117;28;20213;-90
2022/08/03 08:03:45;;;;;;;3.33;2.70;;;;;;;;;;5054107;28;20221;-89
2022/08/03 08:06:19;;;;;;;3.17;2.88;;;;;;;;;;5053981;28;20212;-87
2022/08/03 08:09:10;;;;;;;2.85;2.65;;;;;;;;;;5047109;28;20201;-88
2022/08/03 08:14:10;;;;;;;2.70;2.38;;;;;;;;;;5052492;28;20236;-87
2022/08/03 08:22:38;;;;;;;3.05;2.20;;;;;;;;;;5047253;28;20271;-88
2022/08/03 08:25:10;;;;;;;3.33;2.33;;;;;;;;;;5054481;28;20209;-86
2022/08/03 08:27:47;;;;;;;2.95;2.15;;;;;;;;;;5053234;28;20621;-86
2022/08/03 08:30:16;;;;;;;2.40;2.20;;;;;;;;;;5052951;28;20735;-87
2022/08/03 08:33:01;;;;;;;2.97;2.17;;;;;;;;;;5055382;28;20710;-88
2022/08/03 08:35:33;;;;;;;2.55;2.10;;;;;;;;;;5055367;28;20212;-86
2022/08/03 08:38:04;;;;;;;2.33;2.08;;;;;;;;;;5055581;28;20205;-87
2022/08/03 08:40:58;;;;;;;2.33;2.05;;;;;;;;;;5055033;28;20209;-86
2022/08/03 08:53:01;;;;;;;;;;;;;;;;;;;;;
2022/08/03 09:22:16;;;;;;;2.33;2.13;;;;;;;;;;4938642;28;20231;-86
2022/08/03 09:25:06;;;;;;;1.85;1.75;;;;;;;;;;5047189;28;20699;-87
2022/08/03 09:28:16;;;;;;;1.90;1.80;;;;;;;;;;5046609;28;20228;-87
2022/08/03 09:31:03;;;;;;;2.47;2.00;;;;;;;;;;5036263;28;20301;-88
2022/08/03 09:33:35;;;;;;;2.05;1.92;;;;;;;;;;5049195;28;20221;-88
2022/08/03 09:36:03;;;;;;;2.33;2.00;;;;;;;;;;5052498;28;20292;-88
2022/08/03 09:41:45;;;;;;;2.40;1.83;;;;;;;;;;5050097;28;20206;-89
2022/08/03 09:44:15;;;;;;;1.70;1.60;;;;;;;;;;5039817;28;20212;-87
2022/08/03 09:46:56;;;;;;;1.90;1.80;;;;;;;;;;5044768;28;20222;-87
2022/08/03 09:49:56;;;;;;;2.42;1.92;;;;;;;;;;5044223;28;20320;-88
2022/08/03 09:55:42;;;;;;;1.95;1.83;;;;;;;;;;5037529;28;20288;-87
2022/08/03 10:04:03;;;;;;;2.20;2.00;;;;;;;;;;5059672;22;20323;-87
2022/08/03 10:06:50;;;;;;;2.53;1.75;;;;;;;;;;5053780;28;20205;-88
2022/08/03 10:15:41;;;;;;;1.95;1.85;;;;;;;;;;5036779;28;20197;-87
2022/08/03 10:18:33;;;;;;;2.10;1.80;;;;;;;;;;5049280;28;20213;-88
2022/08/03 10:30:15;;;;;;;2.05;1.90;;;;;;;;;;5050898;28;20200;-88
2022/08/03 10:38:32;;;;;;;2.53;1.67;;;;;;;;;;5054164;28;20724;-86
2022/08/03 10:41:01;;;;;;;2.00;1.80;;;;;;;;;;5053523;28;20204;-87
2022/08/03 10:43:40;;;;;;;2.10;1.90;;;;;;;;;;5052833;28;20221;-87
2022/08/03 10:46:24;;;;;;;1.70;1.60;;;;;;;;;;5050437;28;20193;-87
2022/08/03 10:49:28;;;;;;;;;;;;;;;;;;;;;
2022/08/03 10:52:07;;;;;;;2.17;1.90;;;;;;;;;;5024871;28;20229;-87
2022/08/03 10:57:57;;;;;;;1.80;1.70;;;;;;;;;;5056747;28;20204;-87
2022/08/03 11:00:35;;;;;;;1.95;1.75;;;;;;;;;;5040182;28;20229;-86
2022/08/03 11:03:20;;;;;;;2.25;1.90;;;;;;;;;;5045370;28;20271;-87
2022/08/03 11:05:51;;;;;;;1.77;1.67;;;;;;;;;;5050047;28;20241;-88
2022/08/03 11:09:01;;;;;;;2.05;1.95;;;;;;;;;;5043219;28;20202;-87
2022/08/03 11:11:30;;;;;;;1.90;1.80;;;;;;;;;;4992014;28;20200;-85
2022/08/03 11:14:04;;;;;;;2.22;1.95;;;;;;;;;;5041265;28;20221;-85
2022/08/03 11:16:33;;;;;;;2.40;1.73;;;;;;;;;;5047676;28;20217;-85
2022/08/03 11:19:02;;;;;;;1.77;1.67;;;;;;;;;;5053771;28;20221;-85
2022/08/03 11:21:48;;;;;;;2.17;1.88;;;;;;;;;;5048098;28;20193;-86
2022/08/03 11:24:32;;;;;;;1.83;1.73;;;;;;;;;;5055801;28;20200;-85
2022/08/03 11:27:16;;;;;;;1.98;1.85;;;;;;;;;;5052260;28;20288;-86
2022/08/03 11:29:57;;;;;;;1.95;1.85;;;;;;;;;;5049886;28;20217;-87
2022/08/03 11:32:50;;;;;;;3.45;1.90;;;;;;;;;;5053115;28;20217;-87
2022/08/03 11:35:18;;;;;;;3.33;1.98;;;;;;;;;;5002709;28;20283;-88
2022/08/03 11:38:05;;;;;;;2.30;2.10;;;;;;;;;;5058936;28;20227;-89
2022/08/03 11:40:35;;;;;;;2.03;1.92;;;;;;;;;;5054886;28;20255;-87
2022/08/03 11:43:05;;;;;;;2.05;1.95;;;;;;;;;;5052991;28;20264;-87
2022/08/03 11:45:39;;;;;;;2.30;2.10;;;;;;;;;;5058764;28;20205;-87
2022/08/03 11:48:21;;;;;;;1.85;1.75;;;;;;;;;;5057257;28;20240;-87
2022/08/03 11:50:58;;;;;;;2.30;2.10;;;;;;;;;;5058760;28;20244;-87
2022/08/03 11:53:26;;;;;;;1.77;1.67;;;;;;;;;;5054849;28;20223;-86
2022/08/03 11:55:54;;;;;;;2.25;1.92;;;;;;;;;;5054537;28;20200;-86
2022/08/03 11:58:22;;;;;;;1.98;1.88;;;;;;;;;;5058310;28;20744;-85
2022/08/03 12:01:09;;;;;;;2.33;2.13;;;;;;;;;;5053579;28;20205;-87
2022/08/03 12:03:50;;;;;;;1.80;1.70;;;;;;;;;;5052852;22;20235;-86
2022/08/03 12:15:15;;;;;;;2.90;1.90;;;;;;;;;;4951552;28;20614;-86
2022/08/03 12:18:15;;;;;;;1.98;1.88;;;;;;;;;;4972382;28;20215;-86
2022/08/03 12:33:39;;;;;;;1.92;1.83;;;;;;;;;;4909030;29;20236;-88
2022/08/03 12:39:51;;;;;;;2.40;2.20;;;;;;;;;;4855501;29;20248;-88
2022/08/03 12:45:48;;;;;;;2.47;2.25;;;;;;;;;;4853360;29;20637;-88
2022/08/03 12:48:53;;;;;;;;;;;;;;;;;;;;;
2022/08/03 12:51:54;;;;;;;1.80;1.70;;;;;;;;;;4877695;29;20210;-89
2022/08/03 12:54:39;;;;;;;1.90;1.80;;;;;;;;;;4875517;29;20219;-88
2022/08/03 13:00:13;;;;;;;2.47;2.08;;;;;;;;;;4948331;28;20212;-88
2022/08/03 13:03:15;;;;;;;2.28;2.08;;;;;;;;;;4947047;28;20248;-87
2022/08/03 13:06:28;;;;;;;2.42;2.22;;;;;;;;;;4894775;29;20315;-87
2022/08/03 13:09:24;;;;;;;2.15;1.95;;;;;;;;;;4893892;29;20230;-88
2022/08/03 13:18:47;;;;;;;;;;;;;;;;;;;;;
2022/08/03 13:27:35;;;;;;;2.15;2.00;;;;;;;;;;4891782;29;20206;-88
2022/08/03 13:38:50;;;;;;;2.00;1.90;;;;;;;;;;4897303;29;20284;-89
2022/08/03 13:48:01;;;;;;;2.17;2.08;;;;;;;;;;5044643;28;20462;-88
2022/08/03 13:56:27;;;;;;;3.17;2.35;;;;;;;;;;4984162;28;20198;-86
2022/08/03 13:58:56;;;;;;;2.30;2.10;;;;;;;;;;4992483;28;20203;-86
2022/08/03 14:01:23;;;;;;;2.20;2.03;;;;;;;;;;4984600;28;20302;-85
2022/08/03 14:04:11;;;;;;;2.55;2.30;;;;;;;;;;5001731;28;20222;-85
2022/08/03 14:06:57;;;;;;;2.20;2.10;;;;;;;;;;4995885;28;20248;-85
2022/08/03 14:09:31;;;;;;;2.08;1.92;;;;;;;;;;4987934;28;20210;-86
2022/08/03 14:12:12;;;;;;;2.00;1.90;;;;;;;;;;5020831;22;20249;-85
2022/08/03 14:15:17;;;;;;;2.35;2.00;;;;;;;;;;5028649;28;20214;-85
2022/08/03 14:18:15;;;;;;;1.98;1.88;;;;;;;;;;5037299;28;20217;-84
2022/08/03 14:20:44;;;;;;;2.22;2.10;;;;;;;;;;5029990;28;20205;-84
2022/08/03 14:23:11;;;;;;;2.70;2.10;;;;;;;;;;5037672;28;20242;-84
2022/08/03 14:25:40;;;;;;;2.10;2.00;;;;;;;;;;5049321;28;20201;-84
2022/08/03 14:28:07;;;;;;;2.03;1.92;;;;;;;;;;5054449;28;20200;-84
2022/08/03 14:30:35;;;;;;;2.00;1.90;;;;;;;;;;5043948;28;20262;-84
2022/08/03 14:33:02;;;;;;;2.25;2.10;;;;;;;;;;5066613;28;20232;-84
2022/08/03 14:35:30;;;;;;;2.10;2.00;;;;;;;;;;5054181;28;20687;-85
2022/08/03 14:37:58;;;;;;;2.30;2.20;;;;;;;;;;5060338;28;20216;-84
2022/08/03 14:40:26;;;;;;;2.47;2.30;;;;;;;;;;5053726;28;20245;-85
2022/08/03 14:42:53;;;;;;;2.40;2.10;;;;;;;;;;5041686;28;20285;-85
2022/08/03 14:45:20;;;;;;;2.20;2.00;;;;;;;;;;5038898;28;20208;-85
2022/08/03 14:47:47;;;;;;;2.22;2.13;;;;;;;;;;5043934;28;20260;-85
2022/08/03 14:50:15;;;;;;;2.08;1.95;;;;;;;;;;5048946;28;20210;-84
2022/08/03 14:52:42;;;;;;;2.20;2.00;;;;;;;;;;5051458;28;20225;-83
2022/08/03 14:55:11;;;;;;;2.15;2.05;;;;;;;;;;5045913;28;20248;-85
2022/08/03 14:57:43;;;;;;;2.30;2.20;;;;;;;;;;5046969;28;20245;-85
2022/08/03 15:00:11;;;;;;;2.20;2.10;;;;;;;;;;5045171;28;20618;-84
2022/08/03 15:02:41;;;;;;;2.25;2.05;;;;;;;;;;5049805;28;20220;-84
2022/08/03 15:05:11;;;;;;;2.20;2.10;;;;;;;;;;5051454;28;20199;-84
2022/08/03 15:07:39;;;;;;;2.50;2.13;;;;;;;;;;5049184;28;20220;-85
2022/08/03 15:10:06;;;;;;;2.17;2.08;;;;;;;;;;5046710;28;20211;-85
2022/08/03 15:12:35;;;;;;;4.45;2.50;;;;;;;;;;5052181;28;20224;-84
2022/08/03 15:15:07;;;;;;;2.30;2.10;;;;;;;;;;5047400;28;20225;-84
2022/08/03 15:17:34;;;;;;;2.35;2.22;;;;;;;;;;5038998;28;20264;-84
2022/08/03 15:20:02;;;;;;;2.67;2.30;;;;;;;;;;5051113;28;20207;-84
2022/08/03 15:22:41;;;;;;;3.80;2.45;;;;;;;;;;5056692;28;20229;-86
2022/08/03 15:25:08;;;;;;;2.50;2.25;;;;;;;;;;5052047;28;20201;-84
2022/08/03 15:27:37;;;;;;;2.10;2.00;;;;;;;;;;5058185;28;20244;-84
2022/08/03 15:30:05;;;;;;;2.72;2.10;;;;;;;;;;5059096;28;20433;-84
2022/08/03 15:32:35;;;;;;;2.80;2.50;;;;;;;;;;5050944;28;20225;-84
2022/08/03 15:35:03;;;;;;;2.45;2.20;;;;;;;;;;5046231;28;20221;-84
2022/08/03 15:37:30;;;;;;;2.40;2.20;;;;;;;;;;5057014;28;20194;-84
2022/08/03 15:39:57;;;;;;;2.20;2.10;;;;;;;;;;5055337;28;20214;-85
2022/08/03 15:42:25;;;;;;;2.10;2.00;;;;;;;;;;5055554;28;20233;-84
2022/08/03 15:44:58;;;;;;;2.20;2.10;;;;;;;;;;5058648;28;20204;-84
2022/08/03 15:47:27;;;;;;;2.08;1.98;;;;;;;;;;5050773;28;20229;-84
2022/08/03 15:49:55;;;;;;;2.30;2.10;;;;;;;;;;5053564;28;20281;-84
2022/08/03 15:52:22;;;;;;;2.38;2.17;;;;;;;;;;5047069;28;20643;-84
2022/08/03 15:54:49;;;;;;;2.10;2.00;;;;;;;;;;5043884;28;20244;-84
2022/08/03 15:57:17;;;;;;;2.20;2.10;;;;;;;;;;5052624;28;20221;-84
2022/08/03 15:59:47;;;;;;;1.92;1.83;;;;;;;;;;5047156;28;20213;-84
2022/08/03 16:02:15;;;;;;;2.15;2.05;;;;;;;;;;5048697;28;20217;-83
2022/08/03 16:04:43;;;;;;;1.90;1.80;;;;;;;;;;5053028;28;20244;-84
2022/08/03 16:07:10;;;;;;;2.03;1.83;;;;;;;;;;5048393;28;20210;-83
2022/08/03 16:09:37;;;;;;;2.33;2.13;;;;;;;;;;5050706;28;20225;-84
2022/08/03 16:12:05;;;;;;;1.98;1.88;;;;;;;;;;5050725;28;20217;-84
2022/08/03 16:14:32;;;;;;;2.03;1.83;;;;;;;;;;5050288;28;20232;-84
2022/08/03 16:17:00;;;;;;;2.00;1.90;;;;;;;;;;5052305;28;20238;-84
2022/08/03 16:19:28;;;;;;;1.92;1.83;;;;;;;;;;5041598;28;20210;-84
2022/08/03 16:21:56;;;;;;;2.00;1.90;;;;;;;;;;5057586;28;20731;-84
2022/08/03 16:24:23;;;;;;;1.90;1.80;;;;;;;;;;5049051;28;20206;-84
2022/08/03 16:26:53;;;;;;;2.00;1.90;;;;;;;;;;5046874;28;20221;-83
2022/08/03 16:29:20;;;;;;;1.88;1.77;;;;;;;;;;5045770;28;20208;-83
2022/08/03 16:31:50;;;;;;;2.42;2.22;;;;;;;;;;5048678;28;20224;-83
2022/08/03 16:34:18;;;;;;;2.35;2.10;;;;;;;;;;5048724;28;20212;-84
2022/08/03 16:36:46;;;;;;;2.20;2.10;;;;;;;;;;5047498;28;20221;-83
2022/08/03 16:39:14;;;;;;;2.85;2.30;;;;;;;;;;5054279;28;20198;-83
2022/08/03 16:41:41;;;;;;;3.22;2.40;;;;;;;;;;5048613;28;20201;-83
2022/08/03 16:44:11;;;;;;;2.20;2.00;;;;;;;;;;5058188;28;20204;-83
2022/08/03 16:46:41;;;;;;;3.78;2.78;;;;;;;;;;5048266;28;20194;-83
2022/08/03 16:49:09;;;;;;;2.95;2.65;;;;;;;;;;5048766;28;20208;-83
2022/08/03 16:51:42;;;;;;;2.92;2.42;;;;;;;;;;5053850;28;20252;-85
2022/08/03 16:54:11;;;;;;;3.10;2.60;;;;;;;;;;5034773;28;20660;-85
2022/08/03 16:56:40;;;;;;;2.50;2.25;;;;;;;;;;5046653;28;20221;-86
2022/08/03 16:59:11;;;;;;;2.35;2.10;;;;;;;;;;5041972;28;20209;-85
2022/08/03 17:01:54;;;;;;;2.15;1.95;;;;;;;;;;5047977;28;20261;-85
2022/08/03 17:04:23;;;;;;;2.50;2.30;;;;;;;;;;5035740;28;20216;-85
2022/08/03 17:06:56;;;;;;;2.30;2.10;;;;;;;;;;5037815;28;20190;-86
2022/08/03 17:09:25;;;;;;;2.20;2.00;;;;;;;;;;5037949;28;20293;-87
2022/08/03 17:12:02;;;;;;;2.28;2.00;;;;;;;;;;5044026;28;20233;-87
2022/08/03 17:14:35;;;;;;;2.10;2.00;;;;;;;;;;5047275;28;20221;-86
2022/08/03 17:17:05;;;;;;;2.00;1.90;;;;;;;;;;5043374;28;20222;-86
2022/08/03 17:19:43;;;;;;;2.13;2.00;;;;;;;;;;5034496;28;20634;-86
2022/08/03 17:22:12;;;;;;;2.38;2.00;;;;;;;;;;5047048;28;20232;-87
2022/08/03 17:25:02;;;;;;;2.17;2.00;;;;;;;;;;5038346;28;20232;-86
2022/08/03 17:37:11;;;;;;;2.00;1.90;;;;;;;;;;4971051;28;20267;-89
2022/08/03 17:40:15;;;;;;;2.00;1.80;;;;;;;;;;4971573;28;20253;-90
2022/08/03 18:20:40;;;;;;;;;;;;;;;;;;;;;
2022/08/03 18:23:23;;;;;;;5.97;2.67;;;;;;;;;;5058158;28;20228;-86
2022/08/03 18:28:49;;;;;;;3.17;2.67;;;;;;;;;;5042824;28;20197;-87
2022/08/03 18:31:36;;;;;;;3.63;2.72;;;;;;;;;;5045740;28;20204;-87
2022/08/03 18:34:24;;;;;;;3.08;2.78;;;;;;;;;;5048005;28;20236;-87
2022/08/03 18:37:58;;;;;;;;;;;;;;;;;;;;;
2022/08/03 18:40:35;;;;;;;3.25;2.95;;;;;;;;;;5043926;28;20201;-86
2022/08/03 18:43:26;;;;;;;2.83;2.53;;;;;;;;;;5052939;22;20221;-88
2022/08/03 18:46:14;;;;;;;;;;;;;;;;;;;;;
2022/08/03 18:49:13;;;;;;;3.20;3.00;;;;;;;;;;5047270;28;20547;-93
2022/08/03 19:10:38;;;;;;;48.53;13.98;;;;;;;;;;5025207;28;20209;-87
2022/08/03 19:13:35;;;;;;;45.05;14.48;;;;;;;;;;5051273;28;20221;-87
2022/08/03 19:16:03;;;;;;;53.28;15.35;;;;;;;;;;5054062;28;20217;-87
2022/08/03 19:18:40;;;;;;;45.15;14.45;;;;;;;;;;5054813;28;20237;-85
2022/08/03 19:21:11;;;;;;;38.65;12.52;;;;;;;;;;5047699;28;20656;-85
2022/08/03 19:23:41;;;;;;;30.80;11.30;;;;;;;;;;5054825;28;20213;-85
2022/08/03 19:26:11;;;;;;;31.98;12.57;;;;;;;;;;5053449;28;20201;-85
2022/08/03 19:28:43;;;;;;;28.23;10.65;;;;;;;;;;5054091;28;20209;-85
2022/08/03 19:46:06;;;;;;;48.38;15.90;;;;;;;;;;4996069;28;20214;-86
2022/08/03 19:48:36;;;;;;;47.38;16.52;;;;;;;;;;5073023;28;20197;-87
2022/08/03 19:51:06;;;;;;;43.75;14.80;;;;;;;;;;5074966;28;20295;-86
2022/08/03 19:53:41;;;;;;;36.67;14.15;;;;;;;;;;5061938;28;20304;-87
2022/08/03 19:58:58;;;;;;;32.15;12.88;;;;;;;;;;5047322;28;20197;-88
2022/08/03 20:01:32;;;;;;;26.15;11.27;;;;;;;;;;5042299;28;20206;-87
2022/08/03 20:04:06;;;;;;;25.55;10.52;;;;;;;;;;5054399;28;20235;-88
2022/08/03 20:06:37;;;;;;;23.92;10.07;;;;;;;;;;5048501;28;20202;-89
2022/08/03 20:09:20;;;;;;;26.40;10.32;;;;;;;;;;5035788;28;20208;-88
2022/08/03 20:11:48;;;;;;;18.23;9.23;;;;;;;;;;5043282;28;20228;-88
2022/08/03 20:14:21;;;;;;;19.70;9.35;;;;;;;;;;5052822;28;20217;-89
2022/08/03 20:16:50;;;;;;;20.23;9.85;;;;;;;;;;5051177;28;20213;-87
2022/08/03 20:19:38;;;;;;;20.10;9.55;;;;;;;;;;5053116;28;20204;-86
2022/08/03 20:22:07;;;;;;;16.88;8.52;;;;;;;;;;5048912;28;20194;-90
2022/08/03 20:24:41;;;;;;;18.67;8.95;;;;;;;;;;5046743;28;20226;-88
2022/08/03 20:27:11;;;;;;;18.40;9.25;;;;;;;;;;5047848;28;20201;-90
2022/08/03 20:29:45;;;;;;;15.82;8.50;;;;;;;;;;5051694;28;20258;-88
2022/08/03 20:32:19;;;;;;;14.00;8.57;;;;;;;;;;5046326;28;20205;-87
2022/08/03 20:34:48;;;;;;;15.73;9.15;;;;;;;;;;5046984;28;20198;-88
2022/08/03 20:37:17;;;;;;;12.15;8.35;;;;;;;;;;5045994;28;20232;-87
2022/08/03 20:39:44;;;;;;;14.82;8.05;;;;;;;;;;5043132;28;20309;-88
2022/08/03 20:42:15;;;;;;;11.23;8.02;;;;;;;;;;5046220;28;20304;-87
2022/08/03 20:44:44;;;;;;;11.82;7.85;;;;;;;;;;5046577;28;20209;-86
2022/08/03 20:47:11;;;;;;;10.68;7.88;;;;;;;;;;5046401;28;20201;-87
2022/08/03 20:49:42;;;;;;;11.43;7.78;;;;;;;;;;5050997;28;20204;-87
2022/08/03 20:52:15;;;;;;;9.52;6.50;;;;;;;;;;5044048;28;20262;-88
2022/08/03 20:54:48;;;;;;;11.00;6.65;;;;;;;;;;5044678;28;20198;-87
2022/08/03 20:57:19;;;;;;;10.70;6.78;;;;;;;;;;5046971;28;20221;-88
2022/08/03 20:59:50;;;;;;;9.80;7.30;;;;;;;;;;5051338;28;20212;-89
2022/08/03 21:02:29;;;;;;;8.95;6.38;;;;;;;;;;5051912;28;20209;-88
2022/08/03 21:04:56;;;;;;;7.22;5.78;;;;;;;;;;5050419;28;20205;-89
2022/08/03 21:07:26;;;;;;;7.65;6.45;;;;;;;;;;5051828;28;20198;-87
2022/08/03 21:09:57;;;;;;;8.73;6.47;;;;;;;;;;5051147;28;20713;-87
2022/08/03 21:12:33;;;;;;;11.70;7.32;;;;;;;;;;5051986;28;20233;-89
2022/08/03 21:15:02;;;;;;;8.05;6.50;;;;;;;;;;5047033;28;20295;-88
2022/08/03 21:17:31;;;;;;;7.32;6.53;;;;;;;;;;5046497;28;20217;-88
2022/08/03 21:19:59;;;;;;;6.93;6.22;;;;;;;;;;5052598;28;20271;-88
2022/08/03 21:22:35;;;;;;;7.50;6.25;;;;;;;;;;5051342;28;20241;-88
2022/08/03 21:25:08;;;;;;;8.05;6.28;;;;;;;;;;5052543;28;20266;-88
2022/08/03 21:27:48;;;;;;;7.20;6.43;;;;;;;;;;5052039;28;20201;-88
2022/08/03 21:30:15;;;;;;;7.45;6.53;;;;;;;;;;5052749;28;20205;-88
2022/08/03 21:32:48;;;;;;;6.07;5.30;;;;;;;;;;5051822;28;20256;-87
2022/08/03 21:35:15;;;;;;;6.85;6.18;;;;;;;;;;5052667;28;20572;-89
2022/08/03 21:37:48;;;;;;;5.65;5.15;;;;;;;;;;5051405;28;20305;-88
2022/08/03 21:40:16;;;;;;;5.20;4.45;;;;;;;;;;5052527;28;20209;-87
2022/08/03 21:42:45;;;;;;;5.03;4.63;;;;;;;;;;5051776;28;20287;-88
2022/08/03 21:47:59;;;;;;;4.97;4.53;;;;;;;;;;5043907;28;20201;-88
2022/08/03 21:50:39;;;;;;;5.07;3.92;;;;;;;;;;5052312;28;20292;-88
2022/08/03 21:53:20;;;;;;;4.82;4.05;;;;;;;;;;5052119;28;20230;-88
2022/08/03 21:55:53;;;;;;;3.97;3.60;;;;;;;;;;5052085;28;20216;-88
2022/08/03 21:58:26;;;;;;;3.80;3.50;;;;;;;;;;5051334;28;20315;-88
2022/08/03 22:00:58;;;;;;;3.38;3.08;;;;;;;;;;5052180;28;20209;-88
2022/08/03 22:03:26;;;;;;;3.55;3.25;;;;;;;;;;5050048;28;20239;-88
2022/08/03 22:05:56;;;;;;;3.30;3.10;;;;;;;;;;5052016;28;20205;-87
2022/08/03 22:08:25;;;;;;;3.40;3.13;;;;;;;;;;5051823;28;20197;-88
2022/08/03 22:10:55;;;;;;;3.28;3.00;;;;;;;;;;5051752;28;20748;-88
2022/08/03 22:13:22;;;;;;;3.40;3.10;;;;;;;;;;5051226;28;20232;-88
2022/08/03 22:15:51;;;;;;;2.90;2.70;;;;;;;;;;5034281;28;20213;-88
2022/08/03 22:18:19;;;;;;;3.00;2.80;;;;;;;;;;5051334;28;20231;-89
2022/08/03 22:20:58;;;;;;;3.40;3.10;;;;;;;;;;5051704;28;20213;-89
2022/08/03 22:23:32;;;;;;;3.00;2.80;;;;;;;;;;5047982;28;20308;-89
2022/08/03 22:26:03;;;;;;;3.13;2.85;;;;;;;;;;5051711;28;20216;-89
2022/08/03 22:28:35;;;;;;;4.93;2.92;;;;;;;;;;5051345;28;20205;-90
2022/08/03 22:31:03;;;;;;;3.00;2.70;;;;;;;;;;5051587;28;20284;-89
2022/08/03 22:33:31;;;;;;;3.03;2.83;;;;;;;;;;5051620;28;20378;-89
2022/08/03 22:36:07;;;;;;;2.53;2.33;;;;;;;;;;5051265;28;20212;-89
2022/08/03 22:38:36;;;;;;;2.85;2.65;;;;;;;;;;5050793;28;20225;-89
2022/08/03 22:41:09;;;;;;;2.72;2.53;;;;;;;;;;5051853;28;20212;-89
2022/08/03 22:43:44;;;;;;;2.88;2.67;;;;;;;;;;5051120;28;20263;-88
2022/08/03 22:46:17;;;;;;;2.97;2.78;;;;;;;;;;5044985;28;20201;-89
2022/08/03 22:48:52;;;;;;;3.13;2.55;;;;;;;;;;5050865;28;20203;-89
2022/08/03 22:51:23;;;;;;;2.70;2.50;;;;;;;;;;5051171;28;20276;-88
2022/08/03 22:53:52;;;;;;;3.70;3.40;;;;;;;;;;5050924;28;20221;-89
2022/08/03 22:56:19;;;;;;;3.30;3.00;;;;;;;;;;5051419;28;20209;-90
2022/08/03 22:58:48;;;;;;;3.22;2.92;;;;;;;;;;5050997;28;20304;-89
2022/08/03 23:01:18;;;;;;;3.22;3.00;;;;;;;;;;5051380;28;20208;-88
2022/08/03 23:03:48;;;;;;;3.50;3.00;;;;;;;;;;5051651;28;20225;-88
2022/08/03 23:06:17;;;;;;;3.13;2.90;;;;;;;;;;5051872;28;20263;-88
2022/08/03 23:08:49;;;;;;;3.05;2.85;;;;;;;;;;5051849;28;20198;-89
2022/08/03 23:11:18;;;;;;;4.15;3.03;;;;;;;;;;5051743;28;20204;-88
2022/08/03 23:13:47;;;;;;;3.30;2.83;;;;;;;;;;5051854;28;20228;-89
2022/08/03 23:16:21;;;;;;;3.72;3.42;;;;;;;;;;5055141;28;20201;-89
2022/08/03 23:18:49;;;;;;;3.10;2.90;;;;;;;;;;5055554;28;20259;-89
2022/08/03 23:21:19;;;;;;;4.00;3.20;;;;;;;;;;5054545;28;20212;-90
2022/08/03 23:23:47;;;;;;;3.47;3.17;;;;;;;;;;5054664;28;20224;-90
2022/08/03 23:26:15;;;;;;;4.10;3.45;;;;;;;;;;5054592;28;20202;-89
2022/08/03 23:28:47;;;;;;;3.40;3.10;;;;;;;;;;5054342;28;20291;-90
2022/08/03 23:31:17;;;;;;;3.53;3.10;;;;;;;;;;5054449;28;20221;-90
2022/08/03 23:33:45;;;;;;;3.00;2.78;;;;;;;;;;5054591;28;20308;-90
2022/08/03 23:36:16;;;;;;;3.30;3.00;;;;;;;;;;5054278;28;20220;-89
2022/08/03 23:38:46;;;;;;;3.13;2.90;;;;;;;;;;5047558;28;20278;-89
2022/08/03 23:41:14;;;;;;;3.90;3.50;;;;;;;;;;5048410;28;20212;-90
2022/08/03 23:43:42;;;;;;;3.55;3.25;;;;;;;;;;5053925;28;20225;-89
2022/08/03 23:46:14;;;;;;;4.60;3.40;;;;;;;;;;5048216;28;20212;-89
2022/08/03 23:48:43;;;;;;;4.03;3.20;;;;;;;;;;5048219;28;20208;-89
2022/08/03 23:51:14;;;;;;;3.30;3.10;;;;;;;;;;5054037;28;20266;-89
2022/08/03 23:53:41;;;;;;;3.40;3.10;;;;;;;;;;5053937;28;20267;-89
2022/08/03 23:56:12;;;;;;;3.63;3.33;;;;;;;;;;5053992;28;20300;-90
2022/08/03 23:58:50;;;;;;;3.88;3.20;;;;;;;;;;5048715;28;20228;-89
